MiSS Stacie — WDF5915 — position and weather

sailwx.info

Track history (hours):
 
Tides and Currents Weather Stations Pressure Air Temp Water Temp Dewpoint Dewpoint Depression Visibility Wind Speed Wind Dir Waves Ship Positions

MiSS Stacie

Owner: Crosby Marine Transportation LLC, Golden Meadow, LA. More information available from US FCC via Universal Licensing System and Coast Guard Vessel Documentation Center.

Last reported at 2016-Aug-19 05:34 UTC. Time now 2016-Aug-24 17:57 UTC.
Position N 29°34' W 090°30'.

Length 20 m; draft 2 m.

Type: Tug. MMSI: 367468640.

Date/timePositionNaut miles runAvg speedWind from/ knotsBaromVisibWave heightAir tempDewpointWater temp
2016-Aug-19 05:34N 29°34' W 090°30'7 6.6
2016-Aug-19 04:33N 29°35' W 090°38'3 2.6
2016-Aug-19 03:33N 29°36' W 090°40'0 0.0
2016-Aug-19 02:33N 29°36' W 090°40'0 0.0
2016-Aug-19 01:33N 29°36' W 090°40'1 0.5
2016-Aug-19 00:33N 29°36' W 090°41'4 4.1
2016-Aug-18 23:33N 29°32' W 090°42'  
2016-Aug-15 23:30N 29°34' W 090°34'6 6.1
2016-Aug-15 22:33N 29°36' W 090°40'0 0.1
2016-Aug-15 21:33N 29°36' W 090°40'0 0.0
2016-Aug-15 20:33N 29°36' W 090°40'0 0.0
2016-Aug-15 19:33N 29°36' W 090°40'0 0.0
2016-Aug-15 18:33N 29°36' W 090°40'0 0.0
2016-Aug-15 17:33N 29°36' W 090°40'0 0.0
2016-Aug-15 16:31N 29°36' W 090°40'0 0.0
2016-Aug-15 15:33N 29°36' W 090°40'0 0.0
2016-Aug-15 14:34N 29°36' W 090°40'0 0.0
2016-Aug-15 13:33N 29°36' W 090°40'0 0.0
2016-Aug-15 12:33N 29°36' W 090°40'0 0.0
2016-Aug-15 11:33N 29°36' W 090°40'2 1.9
2016-Aug-15 10:33N 29°37' W 090°42'4 3.5
2016-Aug-15 09:33N 29°33' W 090°42'3 2.9
2016-Aug-15 08:33N 29°36' W 090°43'2 1.8
2016-Aug-15 07:33N 29°36' W 090°41'1 0.9
2016-Aug-15 06:33N 29°36' W 090°40'14 0.5
2016-Aug-14 00:24N 29°34' W 090°23'7 7.8
2016-Aug-13 23:33N 29°34' W 090°31'7 7.4
2016-Aug-13 22:33N 29°36' W 090°39'4 3.7
2016-Aug-13 21:33N 29°34' W 090°43'1 1.5
2016-Aug-13 20:33N 29°33' W 090°42'0 0.0
2016-Aug-13 19:33N 29°33' W 090°42'0 0.0
2016-Aug-13 18:33N 29°33' W 090°42'0 0.0
2016-Aug-13 17:33N 29°33' W 090°42'0 0.0
2016-Aug-13 16:34N 29°33' W 090°42'0 0.0
2016-Aug-13 15:33N 29°33' W 090°42'0 0.0
2016-Aug-13 14:33N 29°33' W 090°42'0 0.0
2016-Aug-13 13:33N 29°33' W 090°42'0 0.0
2016-Aug-13 12:33N 29°33' W 090°42'0 0.0
2016-Aug-13 11:33N 29°33' W 090°42'0 0.0
2016-Aug-13 10:33N 29°33' W 090°42'0 0.0
2016-Aug-13 09:33N 29°33' W 090°42'0 0.0
2016-Aug-13 08:33N 29°33' W 090°42'0 0.0
2016-Aug-13 07:33N 29°33' W 090°42'0 0.0
2016-Aug-13 06:34N 29°33' W 090°42'0 0.0
2016-Aug-13 05:33N 29°33' W 090°42'0 0.0
2016-Aug-13 04:33N 29°33' W 090°42'0 0.0
2016-Aug-13 03:33N 29°33' W 090°42'0 0.0
2016-Aug-13 02:34N 29°33' W 090°42'0 0.0
2016-Aug-13 01:33N 29°33' W 090°42'0 0.0
2016-Aug-13 00:33N 29°33' W 090°42'0 0.0
2016-Aug-12 23:33N 29°33' W 090°42'0 0.0
2016-Aug-12 22:33N 29°33' W 090°42'0 0.0
2016-Aug-12 21:33N 29°33' W 090°42'0 0.0
2016-Aug-12 20:33N 29°33' W 090°42'0 0.0
2016-Aug-12 19:33N 29°33' W 090°42'0 0.0
2016-Aug-12 18:33N 29°33' W 090°42'0 0.0
2016-Aug-12 17:33N 29°33' W 090°42'0 0.0
2016-Aug-12 16:33N 29°33' W 090°42'0 0.0
2016-Aug-12 15:33N 29°33' W 090°42'0 0.0
2016-Aug-12 14:33N 29°33' W 090°42'0 0.0
2016-Aug-12 13:33N 29°33' W 090°42'0 0.0
2016-Aug-11 15:33N 29°33' W 090°42'0 0.0
2016-Aug-11 14:33N 29°33' W 090°42'0 0.0
2016-Aug-11 13:33N 29°33' W 090°42'0 0.0
2016-Aug-10 15:28N 29°33' W 090°42'0 0.0
2016-Aug-10 14:33N 29°33' W 090°42'0 0.0
2016-Aug-10 13:33N 29°33' W 090°42'0 0.0
2016-Aug-10 12:33N 29°33' W 090°42'0 0.0
2016-Aug-10 11:33N 29°33' W 090°42'0 0.0
2016-Aug-10 10:33N 29°33' W 090°42'0 0.0
2016-Aug-10 09:33N 29°33' W 090°42'0 0.0
2016-Aug-10 08:33N 29°33' W 090°42'0 0.0
2016-Aug-10 07:33N 29°33' W 090°42'0 0.0
2016-Aug-10 06:33N 29°33' W 090°42'0 0.0
2016-Aug-10 05:33N 29°33' W 090°42'0 0.0
2016-Aug-10 04:33N 29°33' W 090°42'0 0.0
2016-Aug-10 03:33N 29°33' W 090°42'0 0.0
2016-Aug-10 02:33N 29°33' W 090°42'0 0.0
2016-Aug-10 01:33N 29°33' W 090°42'0 0.0
2016-Aug-10 00:33N 29°33' W 090°42'0 0.0
2016-Aug-09 23:33N 29°33' W 090°42'0 0.0
2016-Aug-09 22:33N 29°33' W 090°42'0 0.0
2016-Aug-09 21:33N 29°33' W 090°42'0 0.0
2016-Aug-09 20:33N 29°33' W 090°42'0 0.0
2016-Aug-09 19:33N 29°33' W 090°42'0 0.0
2016-Aug-09 18:33N 29°33' W 090°42'0 0.0
2016-Aug-09 17:33N 29°33' W 090°42'0 0.0
2016-Aug-09 16:33N 29°33' W 090°42'0 0.0
2016-Aug-09 15:33N 29°33' W 090°42'0 0.0
2016-Aug-09 14:33N 29°33' W 090°42'0 0.0
2016-Aug-09 13:33N 29°33' W 090°42'0 0.0
2016-Aug-09 12:33N 29°33' W 090°42'0 0.0
2016-Aug-09 11:33N 29°33' W 090°42'0 0.0
2016-Aug-09 10:33N 29°33' W 090°42'0 0.0
2016-Aug-09 09:33N 29°33' W 090°42'0 0.0
2016-Aug-09 08:33N 29°33' W 090°42'0 0.0
2016-Aug-09 07:34N 29°33' W 090°42'  
Track history (hours):
 
Tides and Currents Weather Stations Pressure Air Temp Water Temp Dewpoint Dewpoint Depression Visibility Wind Speed Wind Dir Waves Ship Positions

MiSS Stacie

Owner: Crosby Marine Transportation LLC, Golden Meadow, LA. More information available from US FCC via Universal Licensing System and Coast Guard Vessel Documentation Center.

Last reported at 2016-Aug-19 05:34 UTC. Time now 2016-Aug-24 17:57 UTC.
Position N 29°34' W 090°30'.

Length 20 m; draft 2 m.

Type: Tug. MMSI: 367468640.

Date/timePositionNaut miles runAvg speedWind from/ knotsBaromVisibWave heightAir tempDewpointWater temp
2016-Aug-19 05:34N 29°34' W 090°30'7 6.6
2016-Aug-19 04:33N 29°35' W 090°38'3 2.6
2016-Aug-19 03:33N 29°36' W 090°40'0 0.0
2016-Aug-19 02:33N 29°36' W 090°40'0 0.0
2016-Aug-19 01:33N 29°36' W 090°40'1 0.5
2016-Aug-19 00:33N 29°36' W 090°41'4 4.1
2016-Aug-18 23:33N 29°32' W 090°42'  
2016-Aug-15 23:30N 29°34' W 090°34'6 6.1
2016-Aug-15 22:33N 29°36' W 090°40'0 0.1
2016-Aug-15 21:33N 29°36' W 090°40'0 0.0
2016-Aug-15 20:33N 29°36' W 090°40'0 0.0
2016-Aug-15 19:33N 29°36' W 090°40'0 0.0
2016-Aug-15 18:33N 29°36' W 090°40'0 0.0
2016-Aug-15 17:33N 29°36' W 090°40'0 0.0
2016-Aug-15 16:31N 29°36' W 090°40'0 0.0
2016-Aug-15 15:33N 29°36' W 090°40'0 0.0
2016-Aug-15 14:34N 29°36' W 090°40'0 0.0
2016-Aug-15 13:33N 29°36' W 090°40'0 0.0
2016-Aug-15 12:33N 29°36' W 090°40'0 0.0
2016-Aug-15 11:33N 29°36' W 090°40'2 1.9
2016-Aug-15 10:33N 29°37' W 090°42'4 3.5
2016-Aug-15 09:33N 29°33' W 090°42'3 2.9
2016-Aug-15 08:33N 29°36' W 090°43'2 1.8
2016-Aug-15 07:33N 29°36' W 090°41'1 0.9
2016-Aug-15 06:33N 29°36' W 090°40'14 0.5
2016-Aug-14 00:24N 29°34' W 090°23'7 7.8
2016-Aug-13 23:33N 29°34' W 090°31'7 7.4
2016-Aug-13 22:33N 29°36' W 090°39'4 3.7
2016-Aug-13 21:33N 29°34' W 090°43'1 1.5
2016-Aug-13 20:33N 29°33' W 090°42'0 0.0
2016-Aug-13 19:33N 29°33' W 090°42'0 0.0
2016-Aug-13 18:33N 29°33' W 090°42'0 0.0
2016-Aug-13 17:33N 29°33' W 090°42'0 0.0
2016-Aug-13 16:34N 29°33' W 090°42'0 0.0
2016-Aug-13 15:33N 29°33' W 090°42'0 0.0
2016-Aug-13 14:33N 29°33' W 090°42'0 0.0
2016-Aug-13 13:33N 29°33' W 090°42'0 0.0
2016-Aug-13 12:33N 29°33' W 090°42'0 0.0
2016-Aug-13 11:33N 29°33' W 090°42'0 0.0
2016-Aug-13 10:33N 29°33' W 090°42'0 0.0
2016-Aug-13 09:33N 29°33' W 090°42'0 0.0
2016-Aug-13 08:33N 29°33' W 090°42'0 0.0
2016-Aug-13 07:33N 29°33' W 090°42'0 0.0
2016-Aug-13 06:34N 29°33' W 090°42'0 0.0
2016-Aug-13 05:33N 29°33' W 090°42'0 0.0
2016-Aug-13 04:33N 29°33' W 090°42'0 0.0
2016-Aug-13 03:33N 29°33' W 090°42'0 0.0
2016-Aug-13 02:34N 29°33' W 090°42'0 0.0
2016-Aug-13 01:33N 29°33' W 090°42'0 0.0
2016-Aug-13 00:33N 29°33' W 090°42'0 0.0
2016-Aug-12 23:33N 29°33' W 090°42'0 0.0
2016-Aug-12 22:33N 29°33' W 090°42'0 0.0
2016-Aug-12 21:33N 29°33' W 090°42'0 0.0
2016-Aug-12 20:33N 29°33' W 090°42'0 0.0
2016-Aug-12 19:33N 29°33' W 090°42'0 0.0
2016-Aug-12 18:33N 29°33' W 090°42'0 0.0
2016-Aug-12 17:33N 29°33' W 090°42'0 0.0
2016-Aug-12 16:33N 29°33' W 090°42'0 0.0
2016-Aug-12 15:33N 29°33' W 090°42'0 0.0
2016-Aug-12 14:33N 29°33' W 090°42'0 0.0
2016-Aug-12 13:33N 29°33' W 090°42'0 0.0
2016-Aug-11 15:33N 29°33' W 090°42'0 0.0
2016-Aug-11 14:33N 29°33' W 090°42'0 0.0
2016-Aug-11 13:33N 29°33' W 090°42'0 0.0
2016-Aug-10 15:28N 29°33' W 090°42'0 0.0
2016-Aug-10 14:33N 29°33' W 090°42'0 0.0
2016-Aug-10 13:33N 29°33' W 090°42'0 0.0
2016-Aug-10 12:33N 29°33' W 090°42'0 0.0
2016-Aug-10 11:33N 29°33' W 090°42'0 0.0
2016-Aug-10 10:33N 29°33' W 090°42'0 0.0
2016-Aug-10 09:33N 29°33' W 090°42'0 0.0
2016-Aug-10 08:33N 29°33' W 090°42'0 0.0
2016-Aug-10 07:33N 29°33' W 090°42'0 0.0
2016-Aug-10 06:33N 29°33' W 090°42'0 0.0
2016-Aug-10 05:33N 29°33' W 090°42'0 0.0
2016-Aug-10 04:33N 29°33' W 090°42'0 0.0
2016-Aug-10 03:33N 29°33' W 090°42'0 0.0
2016-Aug-10 02:33N 29°33' W 090°42'0 0.0
2016-Aug-10 01:33N 29°33' W 090°42'0 0.0
2016-Aug-10 00:33N 29°33' W 090°42'0 0.0
2016-Aug-09 23:33N 29°33' W 090°42'0 0.0
2016-Aug-09 22:33N 29°33' W 090°42'0 0.0
2016-Aug-09 21:33N 29°33' W 090°42'0 0.0
2016-Aug-09 20:33N 29°33' W 090°42'0 0.0
2016-Aug-09 19:33N 29°33' W 090°42'0 0.0
2016-Aug-09 18:33N 29°33' W 090°42'0 0.0
2016-Aug-09 17:33N 29°33' W 090°42'0 0.0
2016-Aug-09 16:33N 29°33' W 090°42'0 0.0
2016-Aug-09 15:33N 29°33' W 090°42'0 0.0
2016-Aug-09 14:33N 29°33' W 090°42'0 0.0
2016-Aug-09 13:33N 29°33' W 090°42'0 0.0
2016-Aug-09 12:33N 29°33' W 090°42'0 0.0
2016-Aug-09 11:33N 29°33' W 090°42'0 0.0
2016-Aug-09 10:33N 29°33' W 090°42'0 0.0
2016-Aug-09 09:33N 29°33' W 090°42'0 0.0
2016-Aug-09 08:33N 29°33' W 090°42'0 0.0
2016-Aug-09 07:34N 29°33' W 090°42'  

Dump ship's entire track history